createdAt,value
2017-10-04T00:01:06.697Z,11.60
2017-10-04T00:03:32.681Z,11.60
2017-10-04T00:05:58.625Z,11.60
2017-10-04T00:08:24.589Z,11.60
2017-10-04T00:10:50.564Z,11.50
2017-10-04T00:13:17.241Z,11.50
2017-10-04T00:15:43.189Z,11.50
2017-10-04T00:18:09.161Z,11.40
2017-10-04T00:20:35.108Z,11.40
2017-10-04T00:23:01.092Z,11.40
2017-10-04T00:25:27.029Z,11.30
2017-10-04T00:27:52.981Z,11.20
2017-10-04T00:30:18.973Z,11.20
2017-10-04T00:32:44.921Z,11.20
2017-10-04T00:35:10.897Z,11.30
2017-10-04T00:37:36.827Z,11.30
2017-10-04T00:40:02.803Z,11.20
2017-10-04T00:42:28.812Z,11.20
2017-10-04T00:44:54.796Z,11.20
2017-10-04T00:47:20.766Z,11.30
2017-10-04T00:49:46.732Z,11.20
2017-10-04T00:52:13.457Z,11.20
2017-10-04T00:54:40.136Z,11.20
2017-10-04T00:57:06.089Z,11.20
2017-10-04T00:59:32.797Z,11.30
2017-10-04T01:01:58.773Z,11.30
2017-10-04T01:04:24.735Z,11.20
2017-10-04T01:06:51.433Z,11.10
2017-10-04T01:09:17.377Z,11.00
2017-10-04T01:11:43.335Z,11.20
2017-10-04T01:14:09.278Z,11.30
2017-10-04T01:16:36.001Z,11.30
2017-10-04T01:19:02.709Z,11.40
2017-10-04T01:21:28.702Z,11.30
2017-10-04T01:23:54.657Z,11.30
2017-10-04T01:26:20.651Z,11.40
2017-10-04T01:28:47.382Z,11.30
2017-10-04T01:31:14.082Z,11.40
2017-10-04T01:33:40.099Z,11.40
2017-10-04T01:36:06.802Z,11.40
2017-10-04T01:38:32.757Z,11.40
2017-10-04T01:40:58.835Z,11.50
2017-10-04T01:43:25.618Z,11.50
2017-10-04T01:45:51.561Z,11.50
2017-10-04T01:48:17.538Z,11.30
2017-10-04T01:50:43.485Z,11.30
2017-10-04T01:53:10.228Z,11.40
2017-10-04T01:55:36.932Z,11.40
2017-10-04T01:58:02.873Z,11.40
2017-10-04T02:00:28.851Z,11.30
2017-10-04T02:02:54.851Z,11.30
2017-10-04T02:05:20.838Z,11.40
2017-10-04T02:07:46.789Z,11.40
2017-10-04T02:10:13.478Z,11.50
2017-10-04T02:12:39.463Z,11.50
2017-10-04T02:15:05.450Z,11.50
2017-10-04T02:17:31.402Z,11.40
2017-10-04T02:19:57.386Z,11.50
2017-10-04T02:22:23.390Z,11.50
2017-10-04T02:24:49.346Z,11.60
2017-10-04T02:27:15.331Z,11.50
2017-10-04T02:29:41.284Z,11.70
2017-10-04T02:32:08.006Z,11.70
2017-10-04T02:34:33.966Z,11.60
2017-10-04T02:36:59.955Z,11.70
2017-10-04T02:39:25.923Z,11.70
2017-10-04T02:41:51.883Z,11.70
2017-10-04T02:44:17.899Z,11.80
2017-10-04T02:46:43.842Z,11.70
2017-10-04T02:49:09.822Z,11.70
2017-10-04T02:51:35.782Z,11.70
2017-10-04T02:54:02.518Z,11.80
2017-10-04T02:56:28.511Z,11.80
2017-10-04T02:58:54.509Z,11.90
2017-10-04T03:01:20.498Z,11.90
2017-10-04T03:03:46.451Z,11.90
2017-10-04T03:06:12.409Z,11.80
2017-10-04T03:08:38.432Z,11.80
2017-10-04T03:11:04.382Z,11.80
2017-10-04T03:13:30.360Z,11.90
2017-10-04T03:15:57.118Z,11.90
2017-10-04T03:18:23.091Z,11.90
2017-10-04T03:20:49.042Z,11.90
2017-10-04T03:23:15.030Z,11.70
2017-10-04T03:25:40.982Z,11.80
2017-10-04T03:28:06.932Z,11.80
2017-10-04T03:30:33.659Z,11.80
2017-10-04T03:33:00.350Z,11.90
2017-10-04T03:35:26.313Z,11.90
2017-10-04T03:37:52.305Z,11.70
2017-10-04T03:40:19.001Z,11.70
2017-10-04T03:42:44.946Z,11.70
2017-10-04T03:45:11.715Z,11.70
2017-10-04T03:47:38.413Z,11.70
2017-10-04T03:50:04.375Z,11.70
2017-10-04T03:52:30.357Z,11.60
2017-10-04T03:54:57.085Z,11.60
2017-10-04T03:57:23.773Z,11.50
2017-10-04T03:59:49.774Z,11.50
2017-10-04T04:02:15.726Z,11.50
2017-10-04T04:04:42.425Z,11.40
2017-10-04T04:07:08.405Z,11.40
2017-10-04T04:09:34.394Z,11.40
2017-10-04T04:12:00.393Z,11.50
2017-10-04T04:14:26.392Z,11.50
2017-10-04T04:16:52.370Z,11.60
2017-10-04T04:19:19.071Z,11.40
2017-10-04T04:21:45.077Z,11.40
2017-10-04T04:24:11.107Z,11.40
2017-10-04T04:26:37.082Z,11.40
2017-10-04T04:29:03.042Z,11.40
2017-10-04T04:31:29.034Z,11.30
2017-10-04T04:33:55.014Z,11.40
2017-10-04T04:36:20.974Z,11.20
2017-10-04T04:38:58.838Z,11.30
2017-10-04T04:41:26.271Z,11.10
2017-10-04T04:43:52.270Z,11.20
2017-10-04T04:46:18.278Z,11.10
2017-10-04T04:48:44.237Z,11.10
2017-10-04T04:51:10.973Z,11.10
2017-10-04T04:53:36.958Z,11.10
2017-10-04T04:56:02.902Z,11.10
2017-10-04T04:58:28.893Z,11.10
2017-10-04T05:00:55.585Z,11.10
2017-10-04T05:03:21.534Z,11.10
2017-10-04T05:05:47.522Z,11.10
2017-10-04T05:08:14.377Z,11.10
2017-10-04T05:10:41.125Z,11.00
2017-10-04T05:13:07.073Z,11.00
2017-10-04T05:15:33.022Z,11.00
2017-10-04T05:17:59.005Z,11.00
2017-10-04T05:20:25.693Z,10.90
2017-10-04T05:22:51.765Z,10.90
2017-10-04T05:25:17.737Z,10.90
2017-10-04T05:27:43.685Z,11.00
2017-10-04T05:30:09.714Z,11.10
2017-10-04T05:32:35.670Z,11.00
2017-10-04T05:35:02.361Z,11.00
2017-10-04T05:37:28.354Z,11.00
2017-10-04T05:39:54.301Z,11.00
2017-10-04T05:42:20.253Z,11.10
2017-10-04T05:44:46.241Z,11.10
2017-10-04T05:47:12.254Z,11.10
2017-10-04T05:49:38.214Z,11.20
2017-10-04T05:52:04.197Z,11.30
2017-10-04T05:54:30.154Z,11.30
2017-10-04T05:56:56.137Z,11.30
2017-10-04T05:59:22.135Z,11.40
2017-10-04T06:01:48.085Z,11.40
2017-10-04T06:04:14.782Z,11.40
2017-10-04T06:06:40.787Z,11.40
2017-10-04T06:09:06.741Z,11.40
2017-10-04T06:11:33.461Z,11.40
2017-10-04T06:14:00.186Z,11.50
2017-10-04T06:16:26.874Z,11.40
2017-10-04T06:18:52.852Z,11.40
2017-10-04T06:21:18.806Z,11.50
2017-10-04T06:23:44.799Z,11.50
2017-10-04T06:26:10.771Z,11.50
2017-10-04T06:28:36.774Z,11.60
2017-10-04T06:31:02.729Z,11.70
2017-10-04T06:33:28.739Z,11.70
2017-10-04T06:35:54.690Z,11.70
2017-10-04T06:38:20.658Z,11.70
2017-10-04T06:40:46.645Z,11.70
2017-10-04T06:43:12.602Z,11.80
2017-10-04T06:45:39.333Z,12.00
2017-10-04T06:48:06.070Z,11.90
2017-10-04T06:50:32.074Z,11.90
2017-10-04T06:52:58.022Z,12.00
2017-10-04T06:55:23.987Z,12.00
2017-10-04T06:57:49.970Z,12.00
2017-10-04T07:00:15.926Z,12.00
2017-10-04T07:02:41.914Z,12.00
2017-10-04T07:05:07.861Z,12.00
2017-10-04T07:07:33.841Z,12.10
2017-10-04T07:09:59.794Z,12.10
2017-10-04T07:12:25.758Z,12.20
2017-10-04T07:14:51.750Z,12.20
2017-10-04T07:17:18.444Z,12.20
2017-10-04T07:19:44.462Z,12.10
2017-10-04T07:22:10.424Z,12.10
2017-10-04T07:24:36.405Z,12.10
2017-10-04T07:27:02.363Z,12.20
2017-10-04T07:29:28.347Z,12.30
2017-10-04T07:31:54.326Z,12.20
2017-10-04T07:34:21.017Z,12.10
2017-10-04T07:36:47.001Z,12.10
2017-10-04T07:39:12.967Z,12.20
2017-10-04T07:41:38.968Z,12.30
2017-10-04T07:44:05.661Z,12.40
2017-10-04T07:46:31.633Z,12.40
2017-10-04T07:48:57.651Z,12.40
2017-10-04T07:51:23.637Z,12.40
2017-10-04T07:53:49.590Z,12.60
2017-10-04T07:56:15.546Z,12.60
2017-10-04T07:58:41.553Z,12.60
2017-10-04T08:01:08.245Z,12.80
2017-10-04T08:03:34.194Z,12.80
2017-10-04T08:06:00.179Z,13.00
2017-10-04T08:08:26.866Z,13.20
2017-10-04T08:10:52.822Z,13.20
2017-10-04T08:13:19.538Z,13.40
2017-10-04T08:15:46.258Z,13.40
2017-10-04T08:18:12.986Z,13.40
2017-10-04T08:20:39.708Z,13.20
2017-10-04T08:23:06.453Z,13.10
2017-10-04T08:25:33.145Z,13.10
2017-10-04T08:27:59.089Z,13.10
2017-10-04T08:30:25.070Z,13.20
2017-10-04T08:32:51.018Z,13.20
2017-10-04T08:35:17.018Z,13.40
2017-10-04T08:37:42.969Z,13.60
2017-10-04T08:40:08.915Z,13.60
2017-10-04T08:42:35.650Z,13.80
2017-10-04T08:45:02.334Z,13.70
2017-10-04T08:47:40.717Z,13.60
2017-10-04T08:50:06.698Z,13.80
2017-10-04T08:52:32.690Z,14.00
2017-10-04T08:54:59.383Z,14.20
2017-10-04T08:57:25.341Z,14.20
2017-10-04T08:59:51.322Z,14.20
2017-10-04T09:02:17.286Z,14.00
2017-10-04T09:04:55.690Z,14.00
2017-10-04T09:07:21.665Z,14.00
2017-10-04T09:09:47.620Z,14.10
2017-10-04T09:12:13.606Z,14.20
2017-10-04T09:14:39.607Z,14.20
2017-10-04T09:17:05.558Z,14.40
2017-10-04T09:19:31.518Z,14.30
2017-10-04T09:21:57.497Z,14.40
2017-10-04T09:24:23.442Z,14.60
2017-10-04T09:26:49.434Z,14.50
2017-10-04T09:29:15.394Z,14.90
2017-10-04T09:31:41.355Z,14.70
2017-10-04T09:34:07.358Z,14.70
2017-10-04T09:36:33.309Z,14.70
2017-10-04T09:38:59.261Z,14.60
2017-10-04T09:41:25.250Z,14.60
2017-10-04T09:43:51.949Z,14.50
2017-10-04T09:46:17.951Z,14.50
2017-10-04T09:48:43.926Z,14.60
2017-10-04T09:51:09.886Z,14.50
2017-10-04T09:53:35.878Z,14.30
2017-10-04T09:56:01.834Z,14.30
2017-10-04T09:58:27.790Z,14.50
2017-10-04T10:00:53.786Z,14.60
2017-10-04T10:03:19.738Z,14.70
2017-10-04T10:05:46.466Z,15.10
2017-10-04T10:08:13.157Z,15.20
2017-10-04T10:10:39.118Z,15.20
2017-10-04T10:13:05.127Z,15.00
2017-10-04T10:15:31.110Z,14.90
2017-10-04T10:17:57.058Z,15.00
2017-10-04T10:20:23.011Z,15.20
2017-10-04T10:22:48.986Z,15.10
2017-10-04T10:25:14.942Z,14.90
2017-10-04T10:27:41.665Z,14.80
2017-10-04T10:30:08.399Z,14.90
2017-10-04T10:32:35.125Z,14.80
2017-10-04T10:35:01.857Z,14.90
2017-10-04T10:37:28.591Z,15.10
2017-10-04T10:39:54.586Z,15.00
2017-10-04T10:42:21.278Z,15.00
2017-10-04T10:44:47.231Z,15.00
2017-10-04T10:47:13.214Z,15.00
2017-10-04T10:49:39.199Z,15.10
2017-10-04T10:52:05.210Z,15.00
2017-10-04T10:54:31.173Z,14.80
2017-10-04T10:56:57.125Z,14.80
2017-10-04T10:59:23.107Z,14.80
2017-10-04T11:01:49.057Z,14.70
2017-10-04T11:04:15.059Z,14.80
2017-10-04T11:06:41.030Z,14.60
2017-10-04T11:09:06.986Z,14.50
2017-10-04T11:11:33.213Z,14.80
2017-10-04T11:13:59.912Z,15.00
2017-10-04T11:16:25.898Z,14.90
2017-10-04T11:18:51.882Z,14.90
2017-10-04T11:21:17.840Z,14.70
2017-10-04T11:23:43.850Z,14.50
2017-10-04T11:26:09.813Z,14.70
2017-10-04T11:28:35.758Z,15.00
2017-10-04T11:31:01.755Z,15.00
2017-10-04T11:33:27.705Z,15.10
2017-10-04T11:35:54.429Z,15.10
2017-10-04T11:38:21.170Z,15.10
2017-10-04T11:40:47.118Z,15.10
2017-10-04T11:43:13.071Z,15.30
2017-10-04T11:45:39.830Z,15.40
2017-10-04T11:48:05.815Z,15.40
2017-10-04T11:50:32.539Z,15.60
2017-10-04T11:52:59.230Z,15.40
2017-10-04T11:55:25.177Z,15.40
2017-10-04T11:57:51.181Z,15.20
2017-10-04T12:00:17.903Z,15.00
2017-10-04T12:02:44.657Z,15.00
2017-10-04T12:05:10.617Z,15.00
2017-10-04T12:07:36.573Z,15.20
2017-10-04T12:10:02.571Z,15.40
2017-10-04T12:12:28.518Z,15.70
2017-10-04T12:14:54.465Z,15.30
2017-10-04T12:17:21.202Z,15.70
2017-10-04T12:19:47.150Z,15.70
2017-10-04T12:22:13.143Z,16.00
2017-10-04T12:24:39.094Z,15.90
2017-10-04T12:27:05.046Z,16.00
2017-10-04T12:29:31.037Z,15.90
2017-10-04T12:31:57.726Z,15.40
2017-10-04T12:34:23.705Z,15.40
2017-10-04T12:36:49.733Z,15.60
2017-10-04T12:39:15.719Z,15.50
2017-10-04T12:41:41.729Z,15.50
2017-10-04T12:44:07.678Z,15.70
2017-10-04T12:46:33.633Z,15.70
2017-10-04T12:48:59.637Z,15.50
2017-10-04T12:51:25.586Z,15.60
2017-10-04T12:53:51.566Z,15.60
2017-10-04T12:56:17.522Z,15.80
2017-10-04T12:58:43.518Z,15.80
2017-10-04T13:01:09.482Z,15.80
2017-10-04T13:03:35.429Z,15.50
2017-10-04T13:06:01.410Z,15.30
2017-10-04T13:08:27.366Z,15.10
2017-10-04T13:10:53.370Z,15.30
2017-10-04T13:13:19.322Z,15.40
2017-10-04T13:15:45.274Z,15.40
2017-10-04T13:18:12.035Z,15.60
2017-10-04T13:20:38.734Z,15.60
2017-10-04T13:23:04.686Z,15.60
2017-10-04T13:25:30.669Z,15.80
2017-10-04T13:27:57.371Z,16.30
2017-10-04T13:30:23.359Z,16.20
2017-10-04T13:32:49.339Z,16.40
2017-10-04T13:35:15.297Z,16.30
2017-10-04T13:37:41.303Z,16.10
2017-10-04T13:40:07.253Z,15.90
2017-10-04T13:42:33.217Z,15.60
2017-10-04T13:44:59.209Z,15.50
2017-10-04T13:47:25.170Z,15.30
2017-10-04T13:49:51.911Z,15.30
2017-10-04T13:52:17.897Z,15.30
2017-10-04T13:54:44.595Z,15.60
2017-10-04T13:57:10.627Z,15.60
2017-10-04T13:59:37.319Z,15.60
2017-10-04T14:02:03.278Z,15.60
2017-10-04T14:04:30.007Z,15.50
2017-10-04T14:06:56.001Z,15.40
2017-10-04T14:09:22.712Z,15.40
2017-10-04T14:11:49.418Z,15.20
2017-10-04T14:14:15.402Z,15.20
2017-10-04T14:16:41.369Z,15.20
2017-10-04T14:19:08.087Z,15.00
2017-10-04T14:21:34.783Z,14.90
2017-10-04T14:24:00.766Z,14.90
2017-10-04T14:26:26.723Z,14.80
2017-10-04T14:28:52.707Z,14.90
2017-10-04T14:31:19.433Z,14.90
2017-10-04T14:33:45.389Z,14.90
2017-10-04T14:36:11.385Z,15.00
2017-10-04T14:38:38.079Z,15.00
2017-10-04T14:41:04.021Z,15.00
2017-10-04T14:43:30.766Z,14.70
2017-10-04T14:45:56.714Z,14.70
2017-10-04T14:48:22.665Z,14.80
2017-10-04T14:50:48.661Z,14.80
2017-10-04T14:53:15.375Z,14.70
2017-10-04T14:55:42.135Z,14.60
2017-10-04T14:58:08.086Z,14.60
2017-10-04T15:00:34.038Z,14.70
2017-10-04T15:03:00.762Z,14.50
2017-10-04T15:05:27.458Z,14.40
2017-10-04T15:07:53.442Z,14.40
2017-10-04T15:10:19.442Z,14.50
2017-10-04T15:12:45.406Z,14.50
2017-10-04T15:15:12.157Z,14.70
2017-10-04T15:17:38.117Z,14.70
2017-10-04T15:20:04.118Z,14.70
2017-10-04T15:22:30.099Z,14.70
2017-10-04T15:24:56.049Z,14.70
2017-10-04T15:27:22.059Z,14.70
2017-10-04T15:29:48.013Z,14.80
2017-10-04T15:32:13.974Z,14.60
2017-10-04T15:34:39.969Z,14.40
2017-10-04T15:37:05.913Z,14.40
2017-10-04T15:39:32.690Z,14.50
2017-10-04T15:41:58.639Z,14.50
2017-10-04T15:44:25.378Z,14.50
2017-10-04T15:46:52.108Z,14.50
2017-10-04T15:49:18.110Z,14.50
2017-10-04T15:51:44.822Z,14.20
2017-10-04T15:54:10.823Z,14.20
2017-10-04T15:56:36.805Z,14.30
2017-10-04T15:59:02.780Z,14.10
2017-10-04T16:01:28.741Z,14.20
2017-10-04T16:03:54.765Z,14.20
2017-10-04T16:06:20.706Z,14.10
2017-10-04T16:08:46.731Z,14.10
2017-10-04T16:11:12.733Z,14.00
2017-10-04T16:13:38.702Z,14.20
2017-10-04T16:16:04.704Z,14.10
2017-10-04T16:18:31.403Z,14.30
2017-10-04T16:20:57.357Z,14.20
2017-10-04T16:23:24.078Z,14.30
2017-10-04T16:25:50.773Z,14.30
2017-10-04T16:28:16.758Z,14.20
2017-10-04T16:30:42.779Z,14.20
2017-10-04T16:33:09.529Z,14.00
2017-10-04T16:35:35.530Z,13.90
2017-10-04T16:38:01.477Z,14.10
2017-10-04T16:40:27.431Z,14.20
2017-10-04T16:42:53.423Z,13.90
2017-10-04T16:45:19.424Z,13.90
2017-10-04T16:47:45.439Z,13.80
2017-10-04T16:50:11.461Z,13.70
2017-10-04T16:52:37.417Z,13.80
2017-10-04T16:55:04.143Z,13.90
2017-10-04T16:57:30.090Z,13.80
2017-10-04T16:59:56.082Z,13.80
2017-10-04T17:02:22.066Z,13.90
2017-10-04T17:04:48.766Z,13.90
2017-10-04T17:07:14.753Z,13.90
2017-10-04T17:09:40.741Z,13.90
2017-10-04T17:12:06.725Z,13.80
2017-10-04T17:14:33.418Z,13.80
2017-10-04T17:16:59.415Z,13.80
2017-10-04T17:19:25.365Z,13.80
2017-10-04T17:21:51.321Z,13.70
2017-10-04T17:24:17.335Z,13.70
2017-10-04T17:26:43.311Z,13.70
2017-10-04T17:29:09.282Z,13.80
2017-10-04T17:31:35.278Z,13.80
2017-10-04T17:34:01.234Z,13.90
2017-10-04T17:36:27.226Z,13.90
2017-10-04T17:38:54.014Z,13.90
2017-10-04T17:41:19.982Z,13.90
2017-10-04T17:43:45.938Z,13.90
2017-10-04T17:46:11.998Z,13.90
2017-10-04T17:48:37.946Z,14.00
2017-10-04T17:51:05.382Z,14.00
2017-10-04T17:53:31.369Z,14.00
2017-10-04T17:55:57.376Z,14.00
2017-10-04T17:58:23.335Z,13.90
2017-10-04T18:00:49.309Z,13.90
2017-10-04T18:03:15.302Z,13.80
2017-10-04T18:05:41.278Z,13.80
2017-10-04T18:08:07.291Z,13.60
2017-10-04T18:10:33.296Z,13.70
2017-10-04T18:13:00.052Z,13.70
2017-10-04T18:15:26.022Z,13.70
2017-10-04T18:17:52.746Z,13.70
2017-10-04T18:20:19.553Z,13.70
2017-10-04T18:22:45.538Z,13.70
2017-10-04T18:25:11.562Z,13.70
2017-10-04T18:27:37.525Z,13.80
2017-10-04T18:30:03.515Z,13.70
2017-10-04T18:32:30.216Z,13.70
2017-10-04T18:34:56.210Z,13.70
2017-10-04T18:37:22.206Z,13.70
2017-10-04T18:39:48.170Z,13.60
2017-10-04T18:42:14.194Z,13.50
2017-10-04T18:44:40.163Z,13.40
2017-10-04T18:47:06.135Z,13.40
2017-10-04T18:49:32.136Z,13.50
2017-10-04T18:51:58.108Z,13.50
2017-10-04T18:54:24.819Z,13.50
2017-10-04T18:56:50.813Z,13.50
2017-10-04T18:59:16.784Z,13.50
2017-10-04T19:01:42.794Z,13.60
2017-10-04T19:04:08.787Z,13.50
2017-10-04T19:06:34.737Z,13.40
2017-10-04T19:09:00.739Z,13.40
2017-10-04T19:11:26.718Z,13.40
2017-10-04T19:13:52.678Z,13.40
2017-10-04T19:16:18.675Z,13.40
2017-10-04T19:18:44.694Z,13.30
2017-10-04T19:21:10.689Z,13.40
2017-10-04T19:23:36.646Z,13.50
2017-10-04T19:26:02.629Z,13.50
2017-10-04T19:28:28.589Z,13.30
2017-10-04T19:30:54.577Z,13.30
2017-10-04T19:33:20.532Z,13.30
2017-10-04T19:35:46.533Z,13.30
2017-10-04T19:38:12.490Z,13.30
2017-10-04T19:40:39.191Z,13.40
2017-10-04T19:43:05.174Z,13.40
2017-10-04T19:45:31.139Z,13.30
2017-10-04T19:47:57.154Z,13.40
2017-10-04T19:50:23.107Z,13.40
2017-10-04T19:52:50.622Z,13.40
2017-10-04T19:55:16.583Z,13.40
2017-10-04T19:57:43.298Z,13.40
2017-10-04T20:00:09.303Z,13.40
2017-10-04T20:02:37.422Z,13.30
2017-10-04T20:05:03.439Z,13.40
2017-10-04T20:07:29.402Z,13.30
2017-10-04T20:09:56.110Z,13.30
2017-10-04T20:12:22.095Z,13.30
2017-10-04T20:14:48.054Z,13.20
2017-10-04T20:17:14.065Z,13.20
2017-10-04T20:19:40.071Z,13.20
2017-10-04T20:22:06.771Z,13.30
2017-10-04T20:24:32.762Z,13.20
2017-10-04T20:26:58.722Z,13.30
2017-10-04T20:29:24.714Z,13.20
2017-10-04T20:31:51.463Z,13.30
2017-10-04T20:34:17.414Z,13.30
2017-10-04T20:36:43.395Z,13.30
2017-10-04T20:39:09.404Z,13.30
2017-10-04T20:41:35.394Z,13.30
2017-10-04T20:44:01.398Z,13.30
2017-10-04T20:46:27.369Z,13.40
2017-10-04T20:48:53.327Z,13.40
2017-10-04T20:51:19.329Z,13.40
2017-10-04T20:53:45.299Z,13.30
2017-10-04T20:56:11.309Z,13.40
2017-10-04T20:58:37.302Z,13.40
2017-10-04T21:01:03.302Z,13.30
2017-10-04T21:03:29.241Z,13.30
2017-10-04T21:05:55.211Z,13.30
2017-10-04T21:08:21.247Z,13.30
2017-10-04T21:10:47.205Z,13.30
2017-10-04T21:13:13.230Z,13.20
2017-10-04T21:15:39.175Z,13.30
2017-10-04T21:18:05.136Z,13.30
2017-10-04T21:20:31.121Z,13.30
2017-10-04T21:22:57.114Z,13.20
2017-10-04T21:25:23.821Z,13.20
2017-10-04T21:27:49.781Z,13.20
2017-10-04T21:30:15.766Z,13.20
2017-10-04T21:32:42.454Z,13.30
2017-10-04T21:35:08.450Z,13.30
2017-10-04T21:37:34.401Z,13.10
2017-10-04T21:40:01.090Z,13.40
2017-10-04T21:42:27.102Z,13.40
2017-10-04T21:44:53.075Z,13.20
2017-10-04T21:49:58.942Z,13.30
2017-10-04T21:52:24.930Z,13.30
2017-10-04T21:54:50.898Z,13.20
2017-10-04T21:57:17.626Z,13.10
2017-10-04T21:59:43.610Z,13.10
2017-10-04T22:02:09.558Z,13.20
2017-10-04T22:04:35.550Z,13.20
2017-10-04T22:07:01.494Z,13.20
2017-10-04T22:09:27.450Z,13.30
2017-10-04T22:11:54.207Z,13.30
2017-10-04T22:14:20.192Z,13.30
2017-10-04T22:16:46.917Z,13.20
2017-10-04T22:19:13.667Z,13.20
2017-10-04T22:21:39.618Z,13.10
2017-10-04T22:24:05.565Z,13.20
2017-10-04T22:26:32.281Z,13.10
2017-10-04T22:28:58.974Z,13.20
2017-10-04T22:31:24.957Z,13.20
2017-10-04T22:33:50.910Z,13.20
2017-10-04T22:36:16.906Z,13.10
2017-10-04T22:38:42.867Z,13.10
2017-10-04T22:41:08.822Z,13.10
2017-10-04T22:43:34.874Z,13.00
2017-10-04T22:46:00.834Z,13.00
2017-10-04T22:48:26.786Z,13.00
2017-10-04T22:50:52.801Z,13.10
2017-10-04T22:53:18.783Z,13.10
2017-10-04T22:55:44.730Z,13.00
2017-10-04T22:58:11.470Z,13.10
2017-10-04T23:00:37.422Z,13.10
2017-10-04T23:03:03.387Z,13.00
2017-10-04T23:05:29.382Z,13.00
2017-10-04T23:07:56.074Z,13.00
2017-10-04T23:10:22.083Z,13.00
2017-10-04T23:12:48.069Z,13.10
2017-10-04T23:15:14.014Z,13.00
2017-10-04T23:17:39.966Z,13.10
2017-10-04T23:20:05.963Z,13.10
2017-10-04T23:22:31.925Z,13.00
2017-10-04T23:24:57.875Z,13.10
2017-10-04T23:27:23.867Z,13.10
2017-10-04T23:29:50.553Z,13.10
2017-10-04T23:32:16.554Z,13.10
2017-10-04T23:34:42.506Z,13.00
2017-10-04T23:37:09.194Z,13.10
2017-10-04T23:39:35.185Z,13.00
2017-10-04T23:42:01.133Z,13.00
2017-10-04T23:44:27.123Z,13.10
2017-10-04T23:46:53.114Z,13.10
2017-10-04T23:49:19.065Z,13.00
2017-10-04T23:51:45.045Z,13.00
2017-10-04T23:54:11.030Z,13.10
2017-10-04T23:56:36.974Z,13.10
2017-10-04T23:59:02.942Z,13.10
